Time;durP1;ratioP1;P1;durP2;ratioP2;P2;SDS_P1;SDS_P2;PMS_P1;PMS_P2;Temp;Humidity;BMP_temperature;BMP_pressure;BME280_temperature;BME280_humidity;BME280_pressure;Samples;Min_cycle;Max_cycle;Signal;HPM_P1;HPM_P2
2023/01/06 00:01:21;;;;;;;16.60;11.60;;;11.50;99.90;;;;;;5044014;28;20249;-85
2023/01/06 00:03:53;;;;;;;21.83;12.33;;;11.40;99.90;;;;;;5035390;28;20274;-85
2023/01/06 00:06:27;;;;;;;20.90;11.50;;;11.40;99.90;;;;;;5045262;28;20190;-84
2023/01/06 00:09:01;;;;;;;18.33;11.77;;;11.40;99.90;;;;;;5055064;28;20231;-84
2023/01/06 00:11:29;;;;;;;20.37;13.13;;;11.40;99.90;;;;;;5045961;28;20183;-84
2023/01/06 00:13:56;;;;;;;18.23;12.70;;;11.40;99.90;;;;;;5047529;28;20262;-84
2023/01/06 00:16:23;;;;;;;16.93;11.77;;;11.40;99.90;;;;;;5047431;28;20246;-85
2023/01/06 00:18:53;;;;;;;17.83;12.27;;;11.40;99.90;;;;;;5037685;28;20266;-84
2023/01/06 00:21:20;;;;;;;20.97;12.70;;;11.40;99.90;;;;;;5045297;28;20179;-85
2023/01/06 00:23:52;;;;;;;23.13;12.77;;;11.40;99.90;;;;;;5044252;28;20194;-84
2023/01/06 00:26:19;;;;;;;24.50;12.80;;;11.40;99.90;;;;;;5026964;28;20271;-84
2023/01/06 00:28:45;;;;;;;18.30;12.43;;;11.30;99.90;;;;;;5037254;28;20187;-85
2023/01/06 00:31:16;;;;;;;19.17;12.33;;;11.20;99.90;;;;;;5042864;28;20663;-85
2023/01/06 00:33:43;;;;;;;19.20;12.40;;;11.20;99.90;;;;;;5046874;28;20236;-84
2023/01/06 00:36:13;;;;;;;18.17;11.77;;;11.30;99.90;;;;;;5045930;28;20706;-84
2023/01/06 00:38:40;;;;;;;20.80;12.30;;;11.20;99.90;;;;;;5044706;28;20179;-85
2023/01/06 00:44:00;;;;;;;21.50;13.07;;;11.20;99.90;;;;;;5054513;28;20202;-85
2023/01/06 00:46:28;;;;;;;17.50;12.50;;;11.20;99.90;;;;;;5045382;28;20707;-84
2023/01/06 00:48:58;;;;;;;17.23;11.97;;;11.20;99.90;;;;;;5059443;28;20596;-84
2023/01/06 00:51:24;;;;;;;18.40;13.03;;;11.20;99.90;;;;;;5033217;28;20187;-85
2023/01/06 00:53:50;;;;;;;17.37;12.53;;;11.20;99.90;;;;;;5026507;28;20189;-84
2023/01/06 00:56:25;;;;;;;20.30;12.67;;;11.20;99.90;;;;;;5054599;28;20603;-84
2023/01/06 00:58:56;;;;;;;18.50;13.00;;;11.20;99.90;;;;;;5041993;28;20213;-85
2023/01/06 01:01:24;;;;;;;18.87;12.03;;;11.20;99.90;;;;;;5056988;28;20544;-84
2023/01/06 01:03:53;;;;;;;18.90;12.37;;;11.10;99.90;;;;;;5045463;28;20179;-85
2023/01/06 01:06:24;;;;;;;19.40;11.97;;;11.10;99.90;;;;;;5041044;28;20217;-85
2023/01/06 01:08:59;;;;;;;19.83;11.93;;;11.00;99.90;;;;;;5045517;28;20187;-85
2023/01/06 01:14:15;;;;;;;16.43;11.10;;;11.00;99.90;;;;;;5061556;28;20264;-85
2023/01/06 01:16:42;;;;;;;21.87;13.33;;;11.00;99.90;;;;;;5038840;28;20193;-84
2023/01/06 01:19:10;;;;;;;21.00;12.93;;;11.00;99.90;;;;;;5034290;28;20188;-85
2023/01/06 01:21:37;;;;;;;19.87;11.83;;;10.90;99.90;;;;;;5074893;28;20624;-84
2023/01/06 01:24:05;;;;;;;21.63;12.90;;;10.90;99.90;;;;;;5043827;28;20179;-84
2023/01/06 01:26:33;;;;;;;22.10;12.80;;;10.90;99.90;;;;;;5043547;28;20187;-85
2023/01/06 01:29:01;;;;;;;19.90;12.87;;;11.00;99.90;;;;;;5060786;28;20678;-84
2023/01/06 01:31:28;;;;;;;19.50;12.90;;;11.00;99.90;;;;;;5042703;28;20194;-85
2023/01/06 01:33:55;;;;;;;19.13;11.63;;;11.00;99.90;;;;;;5043144;28;20278;-85
2023/01/06 01:36:22;;;;;;;21.40;12.20;;;11.00;99.90;;;;;;5057590;28;20611;-85
2023/01/06 01:38:54;;;;;;;18.53;11.87;;;10.90;99.90;;;;;;5039076;28;20183;-84
2023/01/06 01:41:25;;;;;;;20.77;11.83;;;10.90;99.90;;;;;;5044322;28;20197;-85
2023/01/06 01:43:58;;;;;;;19.33;12.10;;;10.90;99.90;;;;;;5040007;28;20541;-85
2023/01/06 01:46:40;;;;;;;21.70;12.57;;;10.80;99.90;;;;;;5055895;28;20237;-85
2023/01/06 01:49:23;;;;;;;17.73;11.77;;;10.80;99.90;;;;;;5057950;28;20186;-85
2023/01/06 01:51:56;;;;;;;18.17;12.50;;;10.90;99.90;;;;;;5045142;28;20190;-85
2023/01/06 01:54:28;;;;;;;18.33;11.63;;;10.90;99.90;;;;;;5034607;28;20214;-85
2023/01/06 01:57:24;;;;;;;23.63;12.17;;;10.90;99.90;;;;;;5037307;28;20180;-84
2023/01/06 01:59:52;;;;;;;18.53;11.77;;;10.90;99.90;;;;;;5037869;28;20211;-85
2023/01/06 02:02:20;;;;;;;19.63;12.50;;;10.90;99.90;;;;;;5035271;28;20616;-85
2023/01/06 02:04:53;;;;;;;19.13;12.30;;;10.90;99.90;;;;;;5042934;28;20186;-86
2023/01/06 02:07:24;;;;;;;20.33;12.87;;;10.90;99.90;;;;;;5038645;28;20189;-85
2023/01/06 02:10:16;;;;;;;20.40;11.80;;;10.90;99.90;;;;;;5028377;28;20612;-84
2023/01/06 02:12:46;;;;;;;18.97;12.40;;;10.90;99.90;;;;;;5041463;28;20189;-85
2023/01/06 02:15:30;;;;;;;19.13;11.90;;;10.90;99.90;;;;;;5041659;28;20199;-85
2023/01/06 02:18:38;;;;;;;19.63;11.87;;;10.90;99.90;;;;;;5031791;28;20655;-85
2023/01/06 02:21:28;;;;;;;18.00;11.93;;;10.80;99.90;;;;;;5035086;28;20195;-85
2023/01/06 02:24:10;;;;;;;20.33;12.30;;;10.80;99.90;;;;;;5040793;28;20192;-85
2023/01/06 02:27:16;;;;;;;19.70;13.17;;;10.80;99.90;;;;;;5040717;28;20195;-84
2023/01/06 02:30:08;;;;;;;20.57;12.40;;;10.80;99.90;;;;;;5076423;28;20548;-84
2023/01/06 02:33:10;;;;;;;20.33;11.97;;;10.80;99.90;;;;;;5033574;28;20180;-84
2023/01/06 02:36:09;;;;;;;18.43;11.03;;;10.80;99.90;;;;;;5032530;28;20206;-84
2023/01/06 02:38:43;;;;;;;17.47;11.30;;;10.80;99.90;;;;;;5033843;28;20195;-84
2023/01/06 02:41:53;;;;;;;20.20;11.73;;;10.80;99.90;;;;;;5040318;28;20190;-84
2023/01/06 02:44:44;;;;;;;17.93;11.03;;;10.80;99.90;;;;;;5037173;28;20240;-84
2023/01/06 02:48:05;;;;;;;18.00;11.93;;;10.80;99.90;;;;;;5041886;28;20193;-84
2023/01/06 02:51:06;;;;;;;19.83;11.90;;;10.80;99.90;;;;;;5037870;28;20219;-84
2023/01/06 02:54:14;;;;;;;18.70;11.90;;;10.80;99.90;;;;;;5023563;28;20180;-84
2023/01/06 02:56:53;;;;;;;18.97;11.80;;;10.80;99.90;;;;;;5042494;28;20195;-84
2023/01/06 02:59:37;;;;;;;17.87;12.10;;;10.80;99.90;;;;;;5056259;28;20179;-84
2023/01/06 03:02:05;;;;;;;18.70;11.97;;;10.70;99.90;;;;;;5041959;28;20194;-84
2023/01/06 03:04:44;;;;;;;18.57;12.20;;;10.70;99.90;;;;;;5038705;28;20191;-84
2023/01/06 03:07:14;;;;;;;20.67;12.00;;;10.70;99.90;;;;;;5038679;28;20229;-85
2023/01/06 03:09:41;;;;;;;16.67;11.70;;;10.70;99.90;;;;;;5040675;28;20225;-85
2023/01/06 03:12:49;;;;;;;20.40;12.60;;;10.70;99.90;;;;;;5042930;28;20178;-85
2023/01/06 03:15:16;;;;;;;16.33;12.00;;;10.70;99.90;;;;;;5039541;28;20317;-85
2023/01/06 03:17:43;;;;;;;20.23;12.33;;;10.70;99.90;;;;;;5039996;28;20537;-84
2023/01/06 03:20:13;;;;;;;19.80;12.10;;;10.70;99.90;;;;;;5043920;28;20225;-84
2023/01/06 03:22:42;;;;;;;22.03;12.97;;;10.70;99.90;;;;;;5043438;28;20213;-84
2023/01/06 03:25:11;;;;;;;18.67;12.33;;;10.60;99.90;;;;;;5043508;28;20273;-84
2023/01/06 03:27:37;;;;;;;18.83;12.43;;;10.60;99.90;;;;;;5043917;28;20269;-84
2023/01/06 03:30:09;;;;;;;22.33;12.93;;;10.60;99.90;;;;;;5050037;28;20198;-84
2023/01/06 03:32:52;;;;;;;18.80;11.77;;;10.60;99.90;;;;;;5059411;28;20198;-85
2023/01/06 03:35:43;;;;;;;20.03;11.73;;;10.60;99.90;;;;;;5042281;28;20211;-85
2023/01/06 03:39:01;;;;;;;21.10;12.17;;;10.60;99.90;;;;;;5043277;28;20187;-84
2023/01/06 03:44:47;;;;;;;19.97;12.23;;;10.70;99.90;;;;;;5055218;28;20251;-84
2023/01/06 03:47:40;;;;;;;19.30;12.47;;;10.60;99.90;;;;;;5038403;28;20205;-84
2023/01/06 03:50:17;;;;;;;21.83;12.37;;;10.60;99.90;;;;;;5045710;28;20217;-85
2023/01/06 03:52:58;;;;;;;21.90;12.20;;;10.60;99.90;;;;;;5035832;28;20213;-85
2023/01/06 03:55:33;;;;;;;18.07;12.63;;;10.60;99.90;;;;;;5042744;28;20212;-85
2023/01/06 03:58:05;;;;;;;16.97;12.07;;;10.50;99.90;;;;;;5036667;28;20197;-84
2023/01/06 04:00:36;;;;;;;15.83;11.80;;;10.50;99.90;;;;;;5045230;28;20218;-84
2023/01/06 04:03:10;;;;;;;18.63;12.33;;;10.50;99.90;;;;;;5047700;28;20579;-83
2023/01/06 04:05:39;;;;;;;17.80;12.43;;;10.50;99.90;;;;;;5074341;28;20252;-84
2023/01/06 04:08:05;;;;;;;21.67;12.47;;;10.50;99.90;;;;;;5043439;28;20205;-84
2023/01/06 04:10:32;;;;;;;18.50;12.20;;;10.60;99.90;;;;;;5045787;28;20213;-83
2023/01/06 04:12:59;;;;;;;18.57;12.40;;;10.60;99.90;;;;;;5042321;28;20187;-84
2023/01/06 04:15:31;;;;;;;20.90;12.63;;;10.60;99.90;;;;;;5043793;28;20260;-85
2023/01/06 04:17:58;;;;;;;20.13;13.00;;;10.60;99.90;;;;;;5045015;28;20198;-84
2023/01/06 04:20:30;;;;;;;20.27;13.77;;;10.60;99.90;;;;;;5029217;28;20187;-85
2023/01/06 04:22:57;;;;;;;18.53;12.13;;;10.60;99.90;;;;;;5060748;28;20190;-84
2023/01/06 04:25:24;;;;;;;21.07;13.33;;;10.60;99.90;;;;;;5062285;28;20230;-84
2023/01/06 04:27:51;;;;;;;21.03;12.93;;;10.60;99.90;;;;;;5044557;28;20213;-85
2023/01/06 04:30:18;;;;;;;19.63;12.63;;;10.60;99.90;;;;;;5062620;28;20183;-84
2023/01/06 04:32:45;;;;;;;18.30;12.13;;;10.60;99.90;;;;;;5056474;28;20555;-85
2023/01/06 04:35:12;;;;;;;18.53;12.70;;;10.70;99.90;;;;;;5063109;28;20223;-85
2023/01/06 04:37:38;;;;;;;20.40;12.90;;;10.70;99.90;;;;;;5060240;28;20675;-85
2023/01/06 04:40:10;;;;;;;16.87;12.27;;;10.70;99.90;;;;;;5048787;28;20175;-85
2023/01/06 04:45:22;;;;;;;18.23;12.87;;;10.60;99.90;;;;;;5062902;28;20702;-84
2023/01/06 04:47:50;;;;;;;18.17;12.53;;;10.60;99.90;;;;;;5044429;28;20186;-84
2023/01/06 04:50:17;;;;;;;21.87;13.17;;;10.60;99.90;;;;;;5043952;28;20191;-85
2023/01/06 04:52:44;;;;;;;23.73;13.13;;;10.60;99.90;;;;;;5040763;28;20202;-84
2023/01/06 04:55:11;;;;;;;22.07;13.30;;;10.60;99.90;;;;;;5073191;28;20210;-86
2023/01/06 04:57:46;;;;;;;20.57;12.77;;;10.60;99.90;;;;;;5057519;28;20187;-85
2023/01/06 05:00:13;;;;;;;18.73;12.63;;;10.60;99.90;;;;;;5033383;28;20194;-84
2023/01/06 05:02:40;;;;;;;19.43;12.50;;;10.60;99.90;;;;;;5058845;28;20191;-84
2023/01/06 05:05:14;;;;;;;17.60;11.90;;;10.60;99.90;;;;;;5059577;28;20222;-85
2023/01/06 05:07:41;;;;;;;15.93;11.43;;;10.60;99.90;;;;;;5040057;28;20197;-86
2023/01/06 05:10:09;;;;;;;22.23;13.07;;;10.60;99.90;;;;;;5036015;28;20199;-85
2023/01/06 05:12:36;;;;;;;19.03;12.33;;;10.60;99.90;;;;;;5022384;28;20203;-86
2023/01/06 05:15:04;;;;;;;17.63;13.27;;;10.60;99.90;;;;;;5044515;28;20744;-85
2023/01/06 05:17:30;;;;;;;22.40;12.97;;;10.60;99.90;;;;;;5031153;28;20188;-85
2023/01/06 05:19:57;;;;;;;20.03;12.27;;;10.60;99.90;;;;;;5034053;28;20215;-86
2023/01/06 05:22:23;;;;;;;22.30;13.10;;;10.60;99.90;;;;;;5032241;28;20194;-86
2023/01/06 05:24:50;;;;;;;18.30;12.37;;;10.50;99.90;;;;;;5037345;28;20651;-85
2023/01/06 05:27:17;;;;;;;19.77;12.53;;;10.50;99.90;;;;;;5040286;28;20282;-86
2023/01/06 05:29:43;;;;;;;19.27;12.17;;;10.50;99.90;;;;;;5050774;28;20244;-86
2023/01/06 05:32:10;;;;;;;17.93;12.43;;;10.60;99.90;;;;;;5032879;28;20197;-85
2023/01/06 05:34:37;;;;;;;20.83;12.73;;;10.50;99.90;;;;;;5032631;28;20207;-84
2023/01/06 05:37:04;;;;;;;18.43;13.00;;;10.60;99.90;;;;;;5047581;28;20186;-84
2023/01/06 05:39:31;;;;;;;20.33;12.47;;;10.60;99.90;;;;;;5038591;28;20187;-84
2023/01/06 05:41:58;;;;;;;17.30;12.43;;;10.60;99.90;;;;;;5045789;28;20175;-84
2023/01/06 05:44:25;;;;;;;20.87;12.13;;;10.60;99.90;;;;;;5059574;28;20188;-84
2023/01/06 05:47:02;;;;;;;18.63;12.53;;;10.60;99.90;;;;;;5044215;28;20285;-85
2023/01/06 05:49:29;;;;;;;16.60;12.20;;;10.60;99.90;;;;;;5044617;28;20186;-85
2023/01/06 05:51:56;;;;;;;20.97;13.10;;;10.70;99.90;;;;;;5044621;28;20186;-84
2023/01/06 05:54:23;;;;;;;16.47;11.47;;;10.70;99.90;;;;;;5040999;28;20542;-85
2023/01/06 05:56:49;;;;;;;13.83;11.10;;;10.70;99.90;;;;;;5043405;28;20187;-85
2023/01/06 05:59:17;;;;;;;18.57;12.23;;;10.70;99.90;;;;;;5051982;28;20191;-85
2023/01/06 06:01:43;;;;;;;18.80;12.80;;;10.80;99.90;;;;;;5043447;28;20217;-85
2023/01/06 06:04:13;;;;;;;17.50;12.67;;;10.80;99.90;;;;;;5045205;28;20190;-84
2023/01/06 06:06:40;;;;;;;19.03;12.00;;;10.90;99.90;;;;;;5041838;28;20240;-84
2023/01/06 06:09:07;;;;;;;14.63;11.47;;;10.90;99.90;;;;;;5038830;28;20328;-85
2023/01/06 06:11:35;;;;;;;15.83;11.93;;;10.90;99.90;;;;;;5036458;28;20278;-85
2023/01/06 06:14:02;;;;;;;17.50;13.00;;;10.90;99.90;;;;;;5040997;28;20195;-85
2023/01/06 06:16:29;;;;;;;18.73;11.73;;;10.90;99.90;;;;;;5042103;28;20221;-85
2023/01/06 06:18:58;;;;;;;16.10;12.07;;;10.90;99.90;;;;;;5040043;28;20183;-85
2023/01/06 06:21:29;;;;;;;15.30;11.63;;;10.90;99.90;;;;;;5026846;28;20187;-85
2023/01/06 06:23:59;;;;;;;15.03;11.80;;;10.90;99.90;;;;;;5041838;28;20204;-84
2023/01/06 06:26:26;;;;;;;18.97;11.97;;;10.90;99.90;;;;;;5053348;28;20191;-84
2023/01/06 06:28:54;;;;;;;17.13;12.17;;;10.90;99.90;;;;;;5043069;28;20769;-85
2023/01/06 06:31:24;;;;;;;18.70;12.37;;;10.90;99.90;;;;;;5039240;28;20277;-85
2023/01/06 06:34:00;;;;;;;16.57;12.33;;;10.90;99.90;;;;;;5028908;28;20195;-84
2023/01/06 06:36:29;;;;;;;17.73;12.57;;;10.90;99.90;;;;;;5039103;28;20209;-85
2023/01/06 06:39:00;;;;;;;19.47;12.30;;;10.90;99.90;;;;;;5043179;28;20274;-85
2023/01/06 06:41:27;;;;;;;17.03;11.83;;;10.90;99.90;;;;;;5040296;28;20198;-85
2023/01/06 06:43:55;;;;;;;20.40;14.10;;;10.90;99.90;;;;;;5044578;28;20200;-83
2023/01/06 06:46:22;;;;;;;25.73;13.63;;;11.00;99.90;;;;;;5039898;28;20209;-86
2023/01/06 06:48:49;;;;;;;20.00;13.53;;;11.00;99.90;;;;;;5044681;28;20193;-85
2023/01/06 06:51:20;;;;;;;16.60;12.43;;;11.10;99.90;;;;;;5055344;28;20197;-84
2023/01/06 06:53:47;;;;;;;19.13;12.10;;;11.10;99.90;;;;;;5056217;28;20191;-86
2023/01/06 06:56:15;;;;;;;17.40;12.30;;;11.20;99.90;;;;;;5043348;28;20301;-84
2023/01/06 06:58:43;;;;;;;15.63;12.00;;;11.30;99.90;;;;;;5038447;28;20313;-84
2023/01/06 07:01:13;;;;;;;17.13;12.47;;;11.40;99.90;;;;;;5043354;28;20187;-85
2023/01/06 07:03:41;;;;;;;18.53;12.33;;;11.40;99.90;;;;;;5043769;28;20175;-85
2023/01/06 07:06:12;;;;;;;21.43;13.03;;;11.50;99.90;;;;;;5042623;28;20194;-85
2023/01/06 07:08:43;;;;;;;18.57;12.77;;;11.60;99.90;;;;;;5043191;28;20190;-83
2023/01/06 07:11:09;;;;;;;22.63;13.63;;;11.60;99.90;;;;;;5042508;28;20186;-85
2023/01/06 07:13:36;;;;;;;22.10;15.13;;;11.70;99.90;;;;;;5032315;28;20187;-85
2023/01/06 07:16:03;;;;;;;23.93;14.03;;;11.70;99.90;;;;;;5043151;28;20207;-85
2023/01/06 07:18:29;;;;;;;21.30;14.10;;;11.80;99.90;;;;;;5061002;28;20209;-85
2023/01/06 07:20:57;;;;;;;18.80;14.00;;;11.90;99.90;;;;;;5047346;28;20945;-84
2023/01/06 07:23:23;;;;;;;20.03;14.27;;;12.10;99.90;;;;;;5045654;28;20246;-85
2023/01/06 07:26:00;;;;;;;21.30;14.03;;;12.10;99.90;;;;;;5039620;28;20236;-84
2023/01/06 07:28:29;;;;;;;19.30;14.00;;;12.20;99.90;;;;;;5042043;28;20191;-83
2023/01/06 07:30:56;;;;;;;21.77;15.93;;;12.20;99.90;;;;;;5064009;28;20225;-84
2023/01/06 07:33:23;;;;;;;23.30;14.97;;;12.20;99.90;;;;;;5046157;28;20286;-83
2023/01/06 07:35:55;;;;;;;19.47;15.53;;;12.30;99.90;;;;;;5059723;28;20207;-84
2023/01/06 07:38:24;;;;;;;23.53;15.70;;;12.40;99.90;;;;;;5044215;28;20191;-84
2023/01/06 07:40:52;;;;;;;21.60;15.20;;;12.60;99.90;;;;;;5036344;28;20193;-84
2023/01/06 07:43:19;;;;;;;20.83;14.50;;;12.90;99.90;;;;;;5044098;28;20703;-85
2023/01/06 07:45:47;;;;;;;21.43;14.23;;;13.10;99.90;;;;;;5040739;28;20286;-85
2023/01/06 07:48:14;;;;;;;20.53;14.30;;;13.00;99.90;;;;;;5041460;28;20214;-84
2023/01/06 07:50:40;;;;;;;26.77;14.70;;;12.90;99.90;;;;;;5039133;28;20838;-84
2023/01/06 07:53:10;;;;;;;21.50;14.23;;;12.90;99.90;;;;;;5041852;28;20189;-84
2023/01/06 07:55:37;;;;;;;21.50;13.37;;;12.80;99.90;;;;;;5047938;28;20305;-84
2023/01/06 07:58:08;;;;;;;18.67;13.33;;;12.80;99.90;;;;;;5049241;28;20175;-84
2023/01/06 08:00:38;;;;;;;22.80;13.90;;;12.80;99.90;;;;;;5064167;28;20178;-85
2023/01/06 08:03:07;;;;;;;21.33;13.37;;;12.80;99.90;;;;;;5045329;28;20186;-83
2023/01/06 08:05:44;;;;;;;19.77;13.97;;;12.80;99.90;;;;;;5044244;28;20286;-83
2023/01/06 08:08:11;;;;;;;20.10;14.10;;;12.80;99.90;;;;;;5059028;28;20578;-84
2023/01/06 08:10:42;;;;;;;16.40;13.00;;;12.80;99.90;;;;;;5060412;28;20186;-84
2023/01/06 08:13:12;;;;;;;22.20;13.20;;;12.90;99.90;;;;;;5038238;28;20269;-84
2023/01/06 08:15:42;;;;;;;18.07;12.80;;;12.90;99.90;;;;;;5039649;28;20229;-84
2023/01/06 08:18:11;;;;;;;19.70;13.37;;;12.80;99.90;;;;;;5043731;28;20191;-85
2023/01/06 08:20:49;;;;;;;20.27;12.90;;;12.90;99.90;;;;;;5056251;28;20609;-85
2023/01/06 08:23:30;;;;;;;21.90;13.77;;;12.90;99.90;;;;;;5058984;28;20194;-85
2023/01/06 08:26:16;;;;;;;18.90;12.70;;;12.90;99.90;;;;;;5047048;28;20191;-85
2023/01/06 08:28:45;;;;;;;20.93;12.37;;;13.00;99.90;;;;;;5048730;28;20198;-84
2023/01/06 08:31:27;;;;;;;16.63;12.83;;;13.10;99.90;;;;;;5044896;28;20330;-84
2023/01/06 08:33:54;;;;;;;19.23;12.47;;;13.20;99.90;;;;;;5060334;28;20230;-85
2023/01/06 08:36:25;;;;;;;15.63;11.93;;;13.20;99.90;;;;;;5044916;28;20559;-86
2023/01/06 08:38:53;;;;;;;16.40;11.83;;;13.30;99.90;;;;;;5063954;28;20210;-85
2023/01/06 08:41:29;;;;;;;17.80;12.43;;;13.30;99.90;;;;;;5047125;28;20274;-86
2023/01/06 08:44:03;;;;;;;17.37;11.47;;;13.30;99.90;;;;;;5046117;28;20247;-86
2023/01/06 08:46:30;;;;;;;19.43;12.33;;;13.30;99.90;;;;;;5047563;28;20221;-86
2023/01/06 08:48:57;;;;;;;21.23;12.27;;;13.30;99.90;;;;;;5058037;28;20193;-86
2023/01/06 08:51:27;;;;;;;14.87;11.43;;;13.30;99.90;;;;;;5050256;28;20190;-85
2023/01/06 08:53:55;;;;;;;16.97;11.80;;;13.30;99.90;;;;;;5044349;28;20268;-86
2023/01/06 08:56:33;;;;;;;19.47;12.67;;;13.30;99.90;;;;;;5059055;28;20698;-85
2023/01/06 08:59:04;;;;;;;21.90;13.00;;;13.30;99.90;;;;;;5044696;28;20309;-85
2023/01/06 09:01:35;;;;;;;19.63;13.23;;;13.30;99.90;;;;;;5042278;28;20500;-85
2023/01/06 09:04:05;;;;;;;16.70;10.50;;;13.30;99.90;;;;;;5052073;28;20187;-84
2023/01/06 09:06:35;;;;;;;19.07;10.80;;;13.30;99.90;;;;;;5036950;28;20525;-84
2023/01/06 09:09:03;;;;;;;16.33;11.00;;;13.30;99.90;;;;;;5035576;28;20195;-84
2023/01/06 09:11:32;;;;;;;16.33;10.53;;;13.30;99.90;;;;;;5056985;28;20187;-84
2023/01/06 09:13:58;;;;;;;23.87;12.67;;;13.30;99.90;;;;;;5039375;28;20240;-85
2023/01/06 09:16:25;;;;;;;15.50;10.47;;;13.30;99.90;;;;;;5036600;28;20234;-83
2023/01/06 09:18:52;;;;;;;16.07;10.10;;;13.40;99.90;;;;;;5023887;28;20198;-84
2023/01/06 09:21:30;;;;;;;17.40;10.27;;;13.40;99.90;;;;;;5040291;28;20187;-84
2023/01/06 09:23:56;;;;;;;12.67;9.93;;;13.70;99.90;;;;;;5057701;28;20650;-84
2023/01/06 09:26:24;;;;;;;11.33;9.30;;;13.60;99.90;;;;;;5041737;28;20651;-84
2023/01/06 09:28:51;;;;;;;17.10;9.47;;;13.60;99.90;;;;;;5042420;28;20179;-83
2023/01/06 09:31:19;;;;;;;11.37;9.10;;;13.70;99.90;;;;;;5040613;28;20183;-84
2023/01/06 09:33:46;;;;;;;13.87;8.60;;;13.80;99.90;;;;;;5037325;28;20187;-84
2023/01/06 09:36:20;;;;;;;12.27;9.10;;;13.90;99.90;;;;;;5049881;28;20620;-84
2023/01/06 09:38:47;;;;;;;12.60;9.00;;;13.90;99.90;;;;;;5037572;28;20191;-83
2023/01/06 09:42:06;;;;;;;11.67;9.10;;;13.90;99.90;;;;;;5032086;28;20191;-83
2023/01/06 09:45:02;;;;;;;14.37;9.10;;;13.90;99.90;;;;;;5027306;28;20194;-84
2023/01/06 09:47:56;;;;;;;12.47;9.00;;;13.90;99.90;;;;;;5038182;28;20187;-85
2023/01/06 09:50:49;;;;;;;15.23;8.80;;;14.00;99.90;;;;;;5041783;28;20194;-85
2023/01/06 09:53:29;;;;;;;15.73;8.47;;;14.00;99.90;;;;;;5043035;28;20198;-83
2023/01/06 09:56:04;;;;;;;18.60;9.10;;;14.10;99.90;;;;;;5039007;28;20203;-84
2023/01/06 09:59:13;;;;;;;11.97;8.33;;;14.00;99.90;;;;;;5039967;28;20675;-83
2023/01/06 10:01:47;;;;;;;12.53;8.27;;;14.00;99.90;;;;;;5041418;28;20195;-84
2023/01/06 10:04:25;;;;;;;11.20;8.40;;;14.00;99.90;;;;;;5046924;28;20181;-84
2023/01/06 10:07:29;;;;;;;13.50;8.77;;;14.00;99.90;;;;;;5035515;28;20195;-84
2023/01/06 10:10:20;;;;;;;15.30;9.17;;;14.00;99.90;;;;;;5036712;28;20190;-83
2023/01/06 10:13:09;;;;;;;9.23;7.80;;;14.10;99.90;;;;;;5040852;28;20227;-84
2023/01/06 10:16:13;;;;;;;10.60;7.20;;;14.00;99.90;;;;;;5039890;28;20258;-85
2023/01/06 10:18:54;;;;;;;8.87;7.33;;;14.10;99.90;;;;;;5034882;28;20183;-84
2023/01/06 10:21:46;;;;;;;9.97;7.93;;;14.10;99.90;;;;;;5037198;28;20201;-84
2023/01/06 10:25:17;;;;;;;13.80;7.93;;;14.10;99.90;;;;;;5040295;28;20262;-85
2023/01/06 10:28:31;;;;;;;9.13;7.40;;;14.20;99.90;;;;;;4993105;28;20671;-86
2023/01/06 10:31:12;;;;;;;16.17;8.70;;;14.30;99.90;;;;;;4980378;28;20253;-86
2023/01/06 10:33:52;;;;;;;13.33;10.30;;;14.30;99.90;;;;;;4987934;28;20707;-86
2023/01/06 10:36:42;;;;;;;10.37;8.17;;;14.30;99.90;;;;;;5027973;28;20211;-85
2023/01/06 10:39:23;;;;;;;14.47;8.67;;;14.40;99.90;;;;;;5036362;28;20218;-85
2023/01/06 10:42:54;;;;;;;10.47;8.73;;;14.40;99.90;;;;;;5042597;28;20218;-86
2023/01/06 10:44:42;;;;;;;11.20;8.20;;;14.40;99.90;;;;;;5055808;28;20206;-85
2023/01/06 10:47:26;;;;;;;14.40;8.90;;;14.40;99.90;;;;;;5046198;28;20282;-85
2023/01/06 10:49:55;;;;;;;11.00;7.83;;;14.50;99.90;;;;;;5041432;28;20199;-84
2023/01/06 10:52:33;;;;;;;15.10;8.30;;;14.50;99.90;;;;;;5048356;28;20199;-85
2023/01/06 10:55:07;;;;;;;11.03;8.77;;;14.70;99.90;;;;;;5048843;28;20225;-85
2023/01/06 10:57:40;;;;;;;12.07;8.33;;;14.90;99.90;;;;;;5048022;28;20242;-85
2023/01/06 11:00:28;;;;;;;10.67;7.93;;;15.00;99.90;;;;;;5062893;28;20213;-85
2023/01/06 11:03:11;;;;;;;9.80;7.93;;;15.10;99.90;;;;;;5045227;28;20248;-85
2023/01/06 11:05:43;;;;;;;15.57;7.60;;;15.00;99.90;;;;;;5046899;28;20263;-84
2023/01/06 11:08:18;;;;;;;11.93;7.87;;;15.00;99.90;;;;;;5050903;28;20191;-85
2023/01/06 11:11:01;;;;;;;10.73;8.00;;;15.00;99.90;;;;;;5050741;28;20205;-85
2023/01/06 11:13:35;;;;;;;8.87;7.40;;;14.90;99.90;;;;;;5050910;28;20689;-84
2023/01/06 11:16:26;;;;;;;11.73;7.57;;;14.70;99.90;;;;;;5052602;28;20214;-84
2023/01/06 11:19:37;;;;;;;11.43;7.50;;;14.80;99.90;;;;;;5061900;28;20240;-85
2023/01/06 11:22:25;;;;;;;9.80;7.17;;;15.10;99.90;;;;;;5062063;28;20285;-84
2023/01/06 11:25:00;;;;;;;9.87;6.47;;;15.30;99.90;;;;;;5054345;28;20190;-84
2023/01/06 11:27:33;;;;;;;10.30;6.33;;;15.40;99.90;;;;;;5052331;28;20201;-85
2023/01/06 11:30:28;;;;;;;8.80;7.00;;;15.30;99.90;;;;;;5052572;28;20191;-85
2023/01/06 11:32:59;;;;;;;7.90;6.57;;;15.40;99.90;;;;;;5032920;28;20179;-85
2023/01/06 11:35:32;;;;;;;10.97;6.60;;;15.50;99.90;;;;;;5071437;28;20222;-85
2023/01/06 11:38:15;;;;;;;9.13;6.67;;;15.50;99.90;;;;;;5064306;28;20206;-85
2023/01/06 11:40:48;;;;;;;8.83;6.53;;;15.40;99.90;;;;;;5044545;28;20201;-84
2023/01/06 11:43:32;;;;;;;16.97;7.17;;;15.40;99.90;;;;;;5047124;28;20178;-84
2023/01/06 11:46:07;;;;;;;9.13;6.57;;;15.50;99.90;;;;;;5047662;28;20202;-85
2023/01/06 11:49:06;;;;;;;8.70;6.53;;;15.50;99.90;;;;;;5062440;28;20253;-85
2023/01/06 11:51:47;;;;;;;11.97;7.33;;;15.50;99.90;;;;;;5044773;28;20262;-85
2023/01/06 11:54:25;;;;;;;11.70;6.80;;;15.60;99.90;;;;;;5058095;28;20529;-85
2023/01/06 11:57:22;;;;;;;11.10;6.53;;;15.60;99.90;;;;;;5060296;28;20211;-86
2023/01/06 12:00:22;;;;;;;11.93;7.07;;;15.60;99.90;;;;;;5051045;28;20191;-85
2023/01/06 12:03:06;;;;;;;10.77;6.90;;;15.60;99.90;;;;;;5064286;28;20179;-85
2023/01/06 12:06:25;;;;;;;7.50;6.30;;;15.60;99.90;;;;;;5049953;28;20182;-86
2023/01/06 12:09:33;;;;;;;9.63;6.97;;;15.70;99.90;;;;;;5051294;28;20552;-85
2023/01/06 12:12:06;;;;;;;11.90;9.03;;;15.60;99.90;;;;;;5038486;28;20210;-85
2023/01/06 12:14:38;;;;;;;9.83;7.73;;;15.60;99.90;;;;;;5044923;28;20273;-85
2023/01/06 12:17:19;;;;;;;12.67;8.30;;;15.70;99.90;;;;;;5055684;28;20198;-85
2023/01/06 12:20:33;;;;;;;9.37;6.93;;;15.60;99.90;;;;;;5068251;28;20175;-85
2023/01/06 12:23:21;;;;;;;9.63;6.60;;;15.70;99.90;;;;;;4948080;29;20668;-84
2023/01/06 12:25:51;;;;;;;13.13;8.20;;;15.70;99.90;;;;;;5046036;28;20205;-84
2023/01/06 12:28:34;;;;;;;12.23;7.57;;;15.60;99.90;;;;;;5051316;28;20214;-85
2023/01/06 12:31:17;;;;;;;9.53;6.67;;;15.60;99.90;;;;;;5052814;28;20194;-85
2023/01/06 12:34:23;;;;;;;9.57;6.73;;;15.60;99.90;;;;;;5048659;28;20642;-85
2023/01/06 12:37:40;;;;;;;10.77;6.87;;;15.60;99.90;;;;;;5053544;28;20206;-85
2023/01/06 12:40:48;;;;;;;8.23;6.40;;;15.50;99.90;;;;;;5036820;28;20190;-85
2023/01/06 12:43:31;;;;;;;11.43;6.90;;;15.50;99.90;;;;;;5059257;28;20198;-85
2023/01/06 12:46:20;;;;;;;11.00;6.87;;;15.40;99.90;;;;;;5057286;28;20203;-85
2023/01/06 12:49:05;;;;;;;15.60;7.20;;;15.50;99.90;;;;;;5046827;28;20296;-84
2023/01/06 12:51:48;;;;;;;7.03;5.83;;;15.40;99.90;;;;;;5056396;28;20240;-86
2023/01/06 12:54:32;;;;;;;9.73;6.33;;;15.40;99.90;;;;;;5042900;28;20191;-85
2023/01/06 12:57:35;;;;;;;9.97;5.93;;;15.40;99.90;;;;;;5041437;28;20202;-85
2023/01/06 13:39:16;;;;;;;13.87;7.70;;;15.10;99.90;;;;;;6099666;23;2047351;-85
2023/01/06 13:41:48;;;;;;;12.60;7.50;;;15.00;99.90;;;;;;6138478;23;20152;-88
2023/01/06 13:44:29;;;;;;;9.63;7.03;;;15.00;99.90;;;;;;6139941;23;20198;-89
2023/01/06 13:47:11;;;;;;;8.87;6.43;;;14.90;99.90;;;;;;6138411;23;20182;-88
2023/01/06 13:49:39;;;;;;;13.10;7.73;;;14.90;99.90;;;;;;6139038;23;20163;-85
2023/01/06 13:52:16;;;;;;;8.33;7.10;;;14.80;99.90;;;;;;6164509;23;20195;-85
2023/01/06 13:54:43;;;;;;;9.23;7.00;;;14.70;99.90;;;;;;6137840;23;20163;-89
2023/01/06 13:57:21;;;;;;;8.27;7.10;;;14.70;99.90;;;;;;6138233;23;20173;-88
2023/01/06 14:00:03;;;;;;;8.23;7.30;;;14.60;99.90;;;;;;6163655;23;20214;-89
2023/01/06 14:02:33;;;;;;;10.80;6.80;;;14.60;99.90;;;;;;6141521;23;20453;-89
2023/01/06 14:05:29;;;;;;;11.00;7.50;;;14.50;99.90;;;;;;6137403;23;20598;-90